Time;durP1;ratioP1;P1;durP2;ratioP2;P2;SDS_P1;SDS_P2;PMS_P1;PMS_P2;Temp;Humidity;BMP_temperature;BMP_pressure;BME280_temperature;BME280_humidity;BME280_pressure;Samples;Min_cycle;Max_cycle;Signal;HPM_P1;HPM_P2
2022/10/16 00:00:32;;;;;;;1.20;1.10;;;17.00;99.90;;;;;;7389664;19;20122;-76
2022/10/16 00:02:58;;;;;;;1.00;0.90;;;17.00;99.90;;;;;;7393409;19;20166;-75
2022/10/16 00:05:23;;;;;;;2.03;1.05;;;17.00;99.90;;;;;;7394186;19;20541;-76
2022/10/16 00:07:49;;;;;;;1.42;1.20;;;17.10;99.90;;;;;;7390405;19;20158;-76
2022/10/16 00:10:15;;;;;;;1.45;0.90;;;17.10;99.90;;;;;;7394706;19;20514;-75
2022/10/16 00:12:41;;;;;;;2.45;1.40;;;17.10;99.90;;;;;;7391768;19;20146;-75
2022/10/16 00:15:07;;;;;;;1.80;1.33;;;17.20;99.90;;;;;;7393643;19;20149;-75
2022/10/16 00:17:33;;;;;;;2.90;1.10;;;16.90;99.90;;;;;;7391532;19;20159;-74
2022/10/16 00:19:59;;;;;;;2.08;1.08;;;17.10;99.90;;;;;;7392327;19;20143;-75
2022/10/16 00:22:24;;;;;;;2.13;1.20;;;17.00;99.90;;;;;;7392092;19;20527;-74
2022/10/16 00:24:50;;;;;;;2.67;1.00;;;17.00;99.90;;;;;;7393197;19;20915;-74
2022/10/16 00:27:16;;;;;;;1.77;1.35;;;16.90;99.90;;;;;;7391464;19;20489;-75
2022/10/16 00:29:42;;;;;;;3.65;1.38;;;16.90;99.90;;;;;;7392657;19;20146;-75
2022/10/16 00:32:08;;;;;;;3.65;1.40;;;16.80;99.90;;;;;;7391414;19;20142;-75
2022/10/16 00:34:35;;;;;;;3.42;1.33;;;16.70;99.90;;;;;;7394564;19;20586;-76
2022/10/16 00:37:02;;;;;;;1.75;1.20;;;16.70;99.90;;;;;;7394487;19;20133;-75
2022/10/16 00:39:28;;;;;;;1.48;1.10;;;16.80;99.90;;;;;;7391758;19;20144;-74
2022/10/16 00:41:54;;;;;;;5.82;3.25;;;16.70;99.90;;;;;;7388792;19;20596;-76
2022/10/16 00:44:41;;;;;;;1.45;1.10;;;16.90;99.90;;;;;;7392633;19;20154;-75
2022/10/16 00:47:10;;;;;;;1.10;1.00;;;16.70;99.90;;;;;;7394679;19;20159;-75
2022/10/16 00:49:36;;;;;;;1.63;1.10;;;16.70;99.90;;;;;;7391498;19;20490;-75
2022/10/16 00:52:02;;;;;;;1.80;1.15;;;16.60;99.90;;;;;;7390942;19;20126;-75
2022/10/16 00:54:30;;;;;;;1.73;1.20;;;16.50;99.90;;;;;;7393434;19;20135;-76
2022/10/16 00:57:00;;;;;;;1.50;0.90;;;16.60;99.90;;;;;;7395399;19;20158;-74
2022/10/16 00:59:39;;;;;;;1.25;1.08;;;16.60;99.90;;;;;;7394164;19;20151;-75
2022/10/16 01:02:07;;;;;;;2.58;1.05;;;16.60;99.90;;;;;;7398490;19;20134;-76
2022/10/16 01:04:52;;;;;;;1.42;0.93;;;16.70;99.90;;;;;;7394249;19;20243;-74
2022/10/16 01:07:28;;;;;;;1.55;1.17;;;16.80;99.90;;;;;;7398435;19;20150;-76
2022/10/16 01:10:19;;;;;;;1.10;1.00;;;16.90;99.90;;;;;;7396991;19;20600;-75
2022/10/16 01:12:56;;;;;;;2.20;0.82;;;16.90;99.90;;;;;;7408686;19;20135;-76
2022/10/16 01:15:27;;;;;;;2.20;1.05;;;16.80;99.90;;;;;;7410433;19;20144;-75
2022/10/16 01:17:52;;;;;;;1.38;1.08;;;16.90;99.90;;;;;;7409305;19;20686;-76
2022/10/16 01:20:27;;;;;;;1.48;0.90;;;16.80;99.90;;;;;;7410044;19;20142;-74
2022/10/16 01:23:16;;;;;;;1.13;1.00;;;16.80;99.90;;;;;;7404146;19;20171;-75
2022/10/16 01:26:08;;;;;;;1.13;0.80;;;16.90;99.90;;;;;;7397548;19;20601;-75
2022/10/16 01:28:55;;;;;;;2.63;1.02;;;16.80;99.90;;;;;;7391130;19;20146;-75
2022/10/16 01:31:25;;;;;;;1.75;1.30;;;17.00;99.90;;;;;;7391355;19;20642;-75
2022/10/16 01:34:00;;;;;;;1.08;0.98;;;17.00;99.90;;;;;;7393178;19;20150;-75
2022/10/16 01:36:35;;;;;;;1.42;0.95;;;17.00;99.90;;;;;;7392390;19;20146;-75
2022/10/16 01:39:02;;;;;;;1.35;0.95;;;16.80;99.90;;;;;;7389586;19;20142;-75
2022/10/16 01:41:34;;;;;;;1.92;1.00;;;16.80;99.90;;;;;;7388677;19;20143;-74
2022/10/16 01:44:05;;;;;;;0.95;0.85;;;16.80;99.90;;;;;;7390462;19;20135;-75
2022/10/16 01:46:33;;;;;;;1.65;0.90;;;16.80;99.90;;;;;;7388567;19;20613;-75
2022/10/16 01:49:01;;;;;;;0.90;0.80;;;16.80;99.90;;;;;;7389876;19;20222;-75
2022/10/16 01:51:29;;;;;;;2.28;0.82;;;16.70;99.90;;;;;;7390049;19;20171;-75
2022/10/16 01:53:58;;;;;;;1.80;0.98;;;16.70;99.90;;;;;;7390583;19;20190;-75
2022/10/16 01:56:26;;;;;;;4.57;1.25;;;16.80;99.90;;;;;;7389536;19;20154;-74
2022/10/16 01:59:01;;;;;;;1.13;0.98;;;16.80;99.90;;;;;;7390250;19;20149;-74
2022/10/16 02:01:30;;;;;;;2.25;1.08;;;16.80;99.90;;;;;;7390225;19;20229;-75
2022/10/16 02:04:01;;;;;;;2.45;0.90;;;16.90;99.90;;;;;;7388579;19;20162;-74
2022/10/16 02:06:27;;;;;;;1.25;1.00;;;17.00;99.90;;;;;;7390183;19;20146;-77
2022/10/16 02:08:53;;;;;;;2.13;0.90;;;16.80;99.90;;;;;;7391063;19;20142;-75
2022/10/16 02:11:19;;;;;;;1.08;0.90;;;16.80;99.90;;;;;;7382786;19;20505;-75
2022/10/16 02:14:05;;;;;;;1.85;0.80;;;16.70;99.90;;;;;;7390413;19;20157;-74
2022/10/16 02:16:36;;;;;;;3.83;1.10;;;16.70;99.90;;;;;;7391238;19;20146;-75
2022/10/16 02:19:01;;;;;;;1.35;0.98;;;16.70;99.90;;;;;;7389430;19;20142;-74
2022/10/16 02:21:32;;;;;;;1.10;0.90;;;16.70;99.90;;;;;;7389068;19;20611;-75
2022/10/16 02:24:02;;;;;;;2.95;1.80;;;16.80;99.90;;;;;;7386309;19;20142;-75
2022/10/16 02:26:38;;;;;;;1.00;0.95;;;16.70;99.90;;;;;;7387840;19;20138;-74
2022/10/16 02:29:10;;;;;;;1.52;1.10;;;16.90;99.90;;;;;;7388927;19;20611;-75
2022/10/16 02:31:41;;;;;;;2.92;0.98;;;16.90;99.90;;;;;;7387732;19;20163;-75
2022/10/16 02:34:11;;;;;;;1.10;1.00;;;16.80;99.90;;;;;;7385586;19;20554;-75
2022/10/16 02:36:39;;;;;;;1.73;1.00;;;16.70;99.90;;;;;;7388918;19;20138;-75
2022/10/16 02:39:05;;;;;;;1.05;0.90;;;16.90;99.90;;;;;;7387716;19;20651;-75
2022/10/16 02:41:31;;;;;;;2.00;1.20;;;16.90;99.90;;;;;;7389183;19;20154;-75
2022/10/16 02:43:57;;;;;;;1.33;0.88;;;16.90;99.90;;;;;;7388958;19;20142;-75
2022/10/16 02:46:23;;;;;;;2.22;0.90;;;16.90;99.90;;;;;;7387587;19;20139;-74
2022/10/16 02:48:48;;;;;;;1.75;0.70;;;16.90;99.90;;;;;;7386582;19;20142;-75
2022/10/16 02:51:14;;;;;;;2.80;1.52;;;17.00;99.90;;;;;;7386864;19;20146;-74
2022/10/16 02:53:40;;;;;;;1.95;1.17;;;16.80;99.90;;;;;;7388491;19;20138;-75
2022/10/16 02:56:06;;;;;;;1.92;1.20;;;16.80;99.90;;;;;;7387794;19;20167;-75
2022/10/16 02:58:31;;;;;;;1.02;0.82;;;16.90;99.90;;;;;;7387540;19;20210;-74
2022/10/16 03:00:57;;;;;;;1.88;0.95;;;16.80;99.90;;;;;;7387326;19;20127;-75
2022/10/16 03:03:23;;;;;;;3.15;1.00;;;16.90;99.90;;;;;;7388603;19;20175;-74
2022/10/16 03:05:50;;;;;;;1.55;0.80;;;17.00;99.90;;;;;;7387407;19;20192;-74
2022/10/16 03:08:16;;;;;;;2.00;1.00;;;16.90;99.90;;;;;;7386725;19;20570;-74
2022/10/16 03:10:41;;;;;;;2.58;1.10;;;17.10;99.90;;;;;;7386671;19;20142;-74
2022/10/16 03:13:07;;;;;;;1.10;1.00;;;17.10;99.90;;;;;;7387410;19;20210;-75
2022/10/16 03:15:33;;;;;;;1.35;0.88;;;17.10;99.90;;;;;;7389019;19;20141;-76
2022/10/16 03:17:59;;;;;;;2.85;0.90;;;17.00;99.90;;;;;;7386430;19;20138;-75
2022/10/16 03:20:26;;;;;;;4.78;1.10;;;16.80;99.90;;;;;;7385684;19;20151;-74
2022/10/16 03:22:52;;;;;;;3.10;1.50;;;16.70;99.90;;;;;;7386884;19;20151;-75
2022/10/16 03:25:18;;;;;;;2.20;1.70;;;16.60;99.90;;;;;;7387518;19;20147;-74
2022/10/16 03:27:44;;;;;;;5.20;1.58;;;16.70;99.90;;;;;;7387805;19;20512;-74
2022/10/16 03:30:10;;;;;;;1.80;0.98;;;16.60;99.90;;;;;;7385982;19;20556;-74
2022/10/16 03:32:36;;;;;;;2.40;1.40;;;16.80;99.90;;;;;;7386575;19;20206;-74
2022/10/16 03:35:02;;;;;;;5.65;1.73;;;16.90;99.90;;;;;;7387962;19;20131;-73
2022/10/16 03:37:27;;;;;;;2.17;1.20;;;16.80;99.90;;;;;;7393989;19;20134;-74
2022/10/16 03:39:53;;;;;;;2.35;1.17;;;16.80;99.90;;;;;;7393112;19;20549;-74
2022/10/16 03:42:19;;;;;;;7.28;1.10;;;16.80;99.90;;;;;;7396112;19;20135;-74
2022/10/16 03:44:45;;;;;;;3.25;0.77;;;16.90;99.90;;;;;;7393994;19;20507;-74
2022/10/16 03:47:11;;;;;;;1.33;0.95;;;16.80;99.90;;;;;;7394001;19;20530;-74
2022/10/16 03:49:36;;;;;;;1.73;1.10;;;16.60;99.90;;;;;;7394584;19;20159;-74
2022/10/16 03:52:02;;;;;;;1.73;1.30;;;16.40;99.90;;;;;;7394260;19;20138;-74
2022/10/16 03:54:29;;;;;;;1.25;1.15;;;16.50;99.90;;;;;;7395052;19;20138;-75
2022/10/16 03:56:55;;;;;;;1.35;1.00;;;16.50;99.90;;;;;;7395482;19;20142;-73
2022/10/16 03:59:21;;;;;;;1.38;1.10;;;16.50;99.90;;;;;;7392352;19;20178;-74
2022/10/16 04:01:46;;;;;;;2.70;0.90;;;16.70;99.90;;;;;;7395408;19;20142;-74
2022/10/16 04:04:12;;;;;;;4.43;0.90;;;16.90;99.90;;;;;;7390828;19;20261;-75
2022/10/16 04:06:38;;;;;;;1.02;0.90;;;16.80;99.90;;;;;;7392797;19;20135;-75
2022/10/16 04:09:04;;;;;;;1.35;1.08;;;16.60;99.90;;;;;;7392677;19;20196;-76
2022/10/16 04:11:29;;;;;;;0.90;0.82;;;16.50;99.90;;;;;;7391076;19;20150;-75
2022/10/16 04:13:55;;;;;;;0.93;0.80;;;16.40;99.90;;;;;;7394594;19;20138;-75
2022/10/16 04:16:21;;;;;;;1.20;0.93;;;16.30;99.90;;;;;;7392526;19;20613;-75
2022/10/16 04:18:47;;;;;;;1.98;1.10;;;16.40;99.90;;;;;;7391032;19;20151;-73
2022/10/16 04:21:12;;;;;;;4.43;1.35;;;16.50;99.90;;;;;;7395067;19;20138;-75
2022/10/16 04:23:38;;;;;;;4.50;1.10;;;16.30;99.90;;;;;;7392347;19;20188;-75
2022/10/16 04:26:04;;;;;;;1.00;0.88;;;16.30;99.90;;;;;;7392027;19;20218;-75
2022/10/16 04:28:30;;;;;;;0.90;0.85;;;16.30;99.90;;;;;;7391460;19;20531;-74
2022/10/16 04:30:56;;;;;;;2.65;0.90;;;16.10;99.90;;;;;;7392549;19;20476;-74
2022/10/16 04:33:22;;;;;;;1.02;0.70;;;16.20;99.90;;;;;;7393410;19;20592;-74
2022/10/16 04:35:47;;;;;;;1.98;0.85;;;16.30;99.90;;;;;;7393551;19;20139;-75
2022/10/16 04:38:13;;;;;;;2.38;1.00;;;16.20;99.90;;;;;;7391318;19;20630;-75
2022/10/16 04:40:39;;;;;;;5.43;0.90;;;16.20;99.90;;;;;;7392377;19;20512;-74
2022/10/16 04:43:05;;;;;;;0.82;0.77;;;16.40;99.90;;;;;;7392858;19;20139;-75
2022/10/16 04:45:31;;;;;;;1.48;1.10;;;16.70;99.90;;;;;;7392135;19;20174;-75
2022/10/16 04:47:58;;;;;;;1.10;1.00;;;16.70;99.90;;;;;;7391016;19;20151;-74
2022/10/16 04:50:24;;;;;;;1.17;1.00;;;16.80;99.90;;;;;;7392744;19;20156;-75
2022/10/16 04:52:49;;;;;;;1.50;1.00;;;16.80;99.90;;;;;;7391382;19;20495;-74
2022/10/16 04:55:15;;;;;;;1.33;0.90;;;16.90;99.90;;;;;;7392895;19;20710;-74
2022/10/16 04:57:41;;;;;;;1.20;1.00;;;16.90;99.90;;;;;;7392810;19;20146;-74
2022/10/16 05:00:07;;;;;;;2.58;1.70;;;16.60;99.90;;;;;;7393415;19;20149;-74
2022/10/16 05:02:34;;;;;;;1.13;1.00;;;16.70;99.90;;;;;;7389732;19;20614;-75
2022/10/16 05:04:59;;;;;;;1.30;1.08;;;16.80;99.90;;;;;;7394577;19;20683;-75
2022/10/16 05:07:27;;;;;;;1.55;1.05;;;17.00;99.90;;;;;;7389436;19;20181;-75
2022/10/16 05:09:53;;;;;;;2.22;1.20;;;16.90;99.90;;;;;;7393694;19;20658;-75
2022/10/16 05:12:19;;;;;;;1.30;1.20;;;17.00;99.90;;;;;;7391206;19;20151;-73
2022/10/16 05:14:44;;;;;;;1.60;1.00;;;16.80;99.90;;;;;;7393794;19;20643;-75
2022/10/16 05:17:10;;;;;;;1.05;0.82;;;16.70;99.90;;;;;;7391107;19;20138;-75
2022/10/16 05:19:36;;;;;;;2.83;1.00;;;16.90;99.90;;;;;;7394382;19;20131;-75
2022/10/16 05:22:02;;;;;;;3.13;0.93;;;16.80;99.90;;;;;;7390781;19;20131;-75
2022/10/16 05:24:27;;;;;;;0.80;0.70;;;16.60;99.90;;;;;;7390127;19;20127;-74
2022/10/16 05:26:53;;;;;;;2.00;0.98;;;16.60;99.90;;;;;;7393148;19;20149;-75
2022/10/16 05:29:19;;;;;;;1.17;0.98;;;16.70;99.90;;;;;;7390602;19;20143;-75
2022/10/16 05:31:45;;;;;;;1.25;1.02;;;16.70;99.90;;;;;;7395299;19;20541;-74
2022/10/16 05:34:11;;;;;;;2.33;0.82;;;16.80;99.90;;;;;;7395373;19;20138;-75
2022/10/16 05:36:37;;;;;;;2.13;1.00;;;16.80;99.90;;;;;;7396958;19;20150;-75
2022/10/16 05:39:03;;;;;;;1.33;0.82;;;16.90;99.90;;;;;;7398463;19;20524;-75
2022/10/16 05:41:28;;;;;;;1.13;0.95;;;16.80;99.90;;;;;;7398822;19;20138;-74
2022/10/16 05:43:54;;;;;;;1.88;0.90;;;16.90;99.90;;;;;;7390713;19;20275;-74
2022/10/16 05:46:20;;;;;;;1.10;1.00;;;16.80;99.90;;;;;;7393332;19;20127;-76
2022/10/16 05:48:46;;;;;;;2.92;1.00;;;16.70;99.90;;;;;;7389484;19;20150;-75
2022/10/16 05:51:14;;;;;;;1.15;0.90;;;16.40;99.90;;;;;;7390408;19;20147;-75
2022/10/16 05:53:40;;;;;;;2.55;0.80;;;16.50;99.90;;;;;;7391573;19;20146;-75
2022/10/16 05:56:08;;;;;;;2.63;1.15;;;16.60;99.90;;;;;;7392076;19;20453;-75
2022/10/16 05:58:36;;;;;;;3.78;1.30;;;16.60;99.90;;;;;;7388057;19;20134;-75
2022/10/16 06:01:07;;;;;;;1.67;1.20;;;16.80;99.90;;;;;;7389856;19;20198;-74
2022/10/16 06:03:34;;;;;;;2.88;1.20;;;16.80;99.90;;;;;;7389107;19;20659;-74
2022/10/16 06:06:11;;;;;;;1.48;1.20;;;17.10;99.90;;;;;;7389736;19;20158;-75
2022/10/16 06:08:37;;;;;;;2.83;1.40;;;17.00;99.90;;;;;;7388122;19;20203;-74
2022/10/16 06:11:04;;;;;;;2.60;1.80;;;17.00;99.90;;;;;;7389404;19;20143;-75
2022/10/16 06:13:31;;;;;;;4.40;1.40;;;17.00;99.90;;;;;;7388760;19;20150;-75
2022/10/16 06:15:58;;;;;;;2.30;1.38;;;17.10;99.90;;;;;;7388969;19;20622;-73
2022/10/16 06:18:25;;;;;;;2.95;1.55;;;17.00;99.90;;;;;;7389477;19;20482;-75
2022/10/16 06:20:50;;;;;;;5.50;1.80;;;17.10;99.90;;;;;;7388856;19;20174;-75
2022/10/16 06:23:16;;;;;;;1.83;1.48;;;17.10;99.90;;;;;;7388165;19;20139;-74
2022/10/16 06:25:42;;;;;;;1.73;1.30;;;17.00;99.90;;;;;;7388486;19;20243;-75
2022/10/16 06:28:07;;;;;;;3.20;1.58;;;17.00;99.90;;;;;;7387775;19;20247;-75
2022/10/16 06:30:33;;;;;;;2.05;1.55;;;16.80;99.90;;;;;;7389964;19;20149;-74
2022/10/16 06:32:59;;;;;;;2.35;1.42;;;16.70;99.90;;;;;;7389599;19;20619;-74
2022/10/16 06:35:25;;;;;;;3.83;1.35;;;16.90;99.90;;;;;;7388797;19;20809;-74
2022/10/16 06:37:53;;;;;;;3.53;1.70;;;16.80;99.90;;;;;;7388544;19;20138;-73
2022/10/16 06:40:18;;;;;;;4.25;2.45;;;17.00;99.90;;;;;;7390097;19;20520;-74
2022/10/16 06:42:44;;;;;;;1.88;1.42;;;17.10;99.90;;;;;;7389826;19;20138;-74
2022/10/16 06:45:10;;;;;;;2.58;1.30;;;17.10;99.90;;;;;;7386460;19;20520;-75
2022/10/16 06:47:36;;;;;;;3.55;1.27;;;17.10;99.90;;;;;;7387060;19;20495;-74
2022/10/16 06:50:03;;;;;;;3.10;1.65;;;17.10;99.90;;;;;;7385483;19;20145;-75
2022/10/16 06:52:29;;;;;;;2.67;1.90;;;17.10;99.90;;;;;;7388124;19;20512;-74
2022/10/16 06:54:55;;;;;;;2.72;1.75;;;17.10;99.90;;;;;;7388994;19;20134;-75
2022/10/16 06:57:21;;;;;;;2.55;1.55;;;17.10;99.90;;;;;;7389489;19;20134;-75
2022/10/16 06:59:47;;;;;;;4.68;1.70;;;17.10;99.90;;;;;;7387139;19;20627;-74
2022/10/16 07:02:13;;;;;;;3.15;1.73;;;17.10;99.90;;;;;;7387015;19;20135;-74
2022/10/16 07:04:38;;;;;;;4.68;1.95;;;16.90;99.90;;;;;;7388932;19;20146;-74
2022/10/16 07:07:04;;;;;;;2.30;1.85;;;16.90;99.90;;;;;;7388947;19;20158;-75
2022/10/16 07:09:30;;;;;;;2.95;1.88;;;17.00;99.90;;;;;;7391428;19;20139;-75
2022/10/16 07:11:55;;;;;;;2.28;1.65;;;16.90;99.90;;;;;;7390148;19;20142;-74
2022/10/16 07:14:21;;;;;;;3.67;1.67;;;17.10;99.90;;;;;;7390497;19;20191;-74
2022/10/16 07:16:47;;;;;;;3.33;2.03;;;17.20;99.90;;;;;;7388828;19;20187;-75
2022/10/16 07:19:16;;;;;;;3.47;1.70;;;17.40;99.90;;;;;;7390883;19;20648;-75
2022/10/16 07:21:42;;;;;;;3.13;1.73;;;17.20;99.90;;;;;;7389338;19;20143;-75
2022/10/16 07:24:14;;;;;;;6.03;2.05;;;17.10;99.90;;;;;;7390946;19;20591;-74
2022/10/16 07:26:41;;;;;;;4.07;2.20;;;17.30;99.90;;;;;;7389722;19;20500;-75
2022/10/16 07:29:13;;;;;;;3.03;1.90;;;17.30;99.90;;;;;;7391388;19;20142;-73
2022/10/16 07:31:39;;;;;;;4.90;2.33;;;17.40;99.90;;;;;;7384777;19;20134;-75
2022/10/16 07:34:05;;;;;;;3.28;1.98;;;17.40;99.90;;;;;;7390956;19;20145;-75
2022/10/16 07:36:31;;;;;;;2.70;1.73;;;17.40;99.90;;;;;;7389916;19;20589;-74
2022/10/16 07:38:56;;;;;;;4.57;3.33;;;17.40;99.90;;;;;;7387800;19;20631;-74
2022/10/16 07:41:22;;;;;;;6.05;2.33;;;17.20;99.90;;;;;;7387443;19;20177;-76
2022/10/16 07:43:50;;;;;;;3.15;1.92;;;17.30;99.90;;;;;;7387094;19;20159;-75
2022/10/16 07:46:17;;;;;;;4.78;2.40;;;17.30;99.90;;;;;;7387548;19;20142;-76
2022/10/16 07:48:47;;;;;;;3.15;1.73;;;17.30;99.90;;;;;;7387684;19;21020;-75
2022/10/16 07:51:18;;;;;;;2.50;1.73;;;17.20;99.90;;;;;;7388230;19;20143;-75
2022/10/16 07:53:44;;;;;;;2.00;1.63;;;17.20;99.90;;;;;;7388509;19;20161;-75
2022/10/16 07:56:11;;;;;;;3.30;2.17;;;17.20;99.90;;;;;;7387593;19;20135;-75
2022/10/16 07:58:37;;;;;;;2.00;1.70;;;17.40;99.90;;;;;;7388573;19;20138;-75
2022/10/16 08:01:05;;;;;;;2.10;1.55;;;17.60;99.90;;;;;;7386788;19;20175;-76
2022/10/16 08:03:31;;;;;;;2.30;1.88;;;17.60;99.90;;;;;;7384775;19;20518;-75
2022/10/16 08:05:57;;;;;;;4.38;1.77;;;17.70;99.90;;;;;;7384327;19;20142;-75
2022/10/16 08:08:23;;;;;;;3.05;1.80;;;17.80;99.90;;;;;;7382059;19;20202;-75
2022/10/16 08:10:49;;;;;;;6.43;1.70;;;17.80;99.90;;;;;;7387223;19;20127;-76
2022/10/16 08:13:15;;;;;;;1.73;1.38;;;17.80;99.90;;;;;;7385924;19;20226;-73
2022/10/16 08:15:44;;;;;;;4.50;1.83;;;17.80;99.90;;;;;;7384461;19;20173;-74
2022/10/16 08:18:12;;;;;;;3.60;1.60;;;17.90;99.90;;;;;;7377222;19;20680;-73
2022/10/16 08:20:38;;;;;;;2.60;1.58;;;17.80;99.90;;;;;;7385171;19;20150;-73
2022/10/16 08:23:04;;;;;;;2.17;1.38;;;17.90;99.90;;;;;;7385047;19;20154;-71
2022/10/16 08:25:30;;;;;;;2.42;1.52;;;17.90;99.90;;;;;;7388786;19;20616;-72
2022/10/16 08:27:55;;;;;;;2.55;1.90;;;17.90;99.90;;;;;;7389034;19;20142;-73
2022/10/16 08:30:23;;;;;;;3.00;1.80;;;18.00;99.90;;;;;;7390509;19;20559;-72
2022/10/16 08:32:49;;;;;;;1.58;1.27;;;18.20;99.90;;;;;;7388038;19;20166;-73
2022/10/16 08:35:16;;;;;;;3.15;1.63;;;18.20;99.90;;;;;;7393018;19;20150;-72
2022/10/16 08:37:42;;;;;;;3.42;1.42;;;18.30;99.90;;;;;;7392013;19;20148;-73
2022/10/16 08:40:19;;;;;;;0.82;0.80;;;18.30;99.90;;;;;;7389666;19;20127;-73
2022/10/16 08:43:09;;;;;;;1.63;1.30;;;18.30;99.90;;;;;;7392994;19;20130;-73
2022/10/16 08:45:46;;;;;;;3.38;1.17;;;18.40;99.90;;;;;;7394177;19;20157;-72
2022/10/16 08:48:19;;;;;;;1.80;1.10;;;18.50;99.90;;;;;;7390866;19;20154;-72
2022/10/16 08:50:47;;;;;;;1.48;1.20;;;18.50;99.90;;;;;;7392327;19;20143;-71
2022/10/16 08:53:38;;;;;;;1.33;1.13;;;18.40;99.90;;;;;;7393057;19;20487;-71
2022/10/16 08:56:04;;;;;;;1.10;1.00;;;18.40;99.90;;;;;;7391703;19;20750;-72
2022/10/16 08:58:30;;;;;;;1.83;1.10;;;18.50;99.90;;;;;;7388190;19;20155;-73
2022/10/16 09:01:00;;;;;;;1.95;0.95;;;18.60;99.90;;;;;;7390400;19;20130;-74
2022/10/16 09:03:35;;;;;;;1.30;1.10;;;18.50;99.90;;;;;;7392223;19;20544;-71
2022/10/16 09:06:30;;;;;;;1.30;0.80;;;18.60;99.90;;;;;;7392337;19;20623;-71
2022/10/16 09:08:59;;;;;;;3.42;1.10;;;18.70;99.90;;;;;;7391285;19;20650;-73
2022/10/16 09:12:01;;;;;;;3.05;1.42;;;18.70;99.90;;;;;;7391594;19;20166;-72
2022/10/16 09:14:52;;;;;;;2.85;1.30;;;18.80;99.90;;;;;;7390806;19;20155;-72
2022/10/16 09:17:44;;;;;;;1.52;1.15;;;18.80;99.90;;;;;;7389798;19;20146;-74
2022/10/16 09:20:24;;;;;;;6.55;1.30;;;18.90;99.90;;;;;;7387838;19;20142;-74
2022/10/16 09:23:07;;;;;;;2.05;1.02;;;18.90;99.90;;;;;;7392135;19;20517;-73
2022/10/16 09:25:34;;;;;;;1.65;1.17;;;19.10;99.90;;;;;;7392071;19;20580;-72
2022/10/16 09:28:00;;;;;;;2.30;1.50;;;19.20;99.90;;;;;;7388162;19;20577;-74
2022/10/16 09:30:31;;;;;;;2.17;1.27;;;19.50;99.90;;;;;;7387221;19;20139;-70
2022/10/16 09:32:58;;;;;;;3.13;1.52;;;19.60;99.90;;;;;;7386086;19;20131;-72
2022/10/16 09:35:35;;;;;;;8.25;1.60;;;19.60;99.90;;;;;;7390138;19;20141;-72
2022/10/16 09:38:01;;;;;;;3.67;1.30;;;19.60;99.90;;;;;;7388507;19;20607;-71
2022/10/16 09:40:32;;;;;;;1.95;1.38;;;19.50;99.90;;;;;;7389829;19;20126;-73
2022/10/16 09:43:14;;;;;;;1.27;1.17;;;19.60;99.90;;;;;;7392809;19;20152;-73
2022/10/16 09:45:40;;;;;;;3.88;2.03;;;19.50;99.90;;;;;;7394117;19;20226;-71
2022/10/16 09:48:13;;;;;;;4.63;1.88;;;19.60;99.90;;;;;;7391111;19;20142;-72
2022/10/16 09:50:38;;;;;;;3.42;1.10;;;19.40;99.90;;;;;;7393163;19;20135;-73
2022/10/16 09:53:14;;;;;;;1.10;0.98;;;19.40;99.90;;;;;;7388617;19;20135;-76
2022/10/16 09:55:51;;;;;;;3.08;1.30;;;19.50;99.90;;;;;;7392749;19;20130;-74
2022/10/16 09:58:17;;;;;;;2.97;1.27;;;19.60;99.90;;;;;;7388980;19;20157;-74
2022/10/16 10:00:50;;;;;;;3.67;1.30;;;19.60;99.90;;;;;;7392778;19;20139;-74
2022/10/16 10:03:37;;;;;;;3.38;2.80;;;19.70;99.90;;;;;;7390161;19;20174;-74
2022/10/16 10:06:16;;;;;;;2.20;1.40;;;19.70;99.90;;;;;;7382959;19;20175;-74
2022/10/16 10:09:00;;;;;;;2.17;1.45;;;19.60;99.90;;;;;;7379718;19;20165;-74
2022/10/16 10:12:02;;;;;;;3.28;1.70;;;19.70;99.90;;;;;;7384829;19;20146;-73
2022/10/16 10:14:39;;;;;;;4.20;1.38;;;19.60;99.90;;;;;;7387052;19;20178;-74
2022/10/16 10:17:05;;;;;;;1.55;1.20;;;19.70;99.90;;;;;;7388778;19;20142;-73
2022/10/16 10:19:39;;;;;;;2.58;1.75;;;19.70;99.90;;;;;;7391601;19;20556;-74
2022/10/16 10:22:28;;;;;;;4.25;1.63;;;19.90;99.90;;;;;;7401472;19;20138;-74
2022/10/16 10:25:03;;;;;;;6.05;2.42;;;19.90;99.90;;;;;;7401868;19;20134;-73
2022/10/16 10:28:08;;;;;;;4.25;1.98;;;19.90;99.90;;;;;;7397275;19;20153;-74
2022/10/16 10:31:03;;;;;;;1.83;1.20;;;20.00;99.90;;;;;;7392895;19;20714;-73
2022/10/16 10:33:53;;;;;;;1.75;1.17;;;20.30;99.90;;;;;;7391251;19;20146;-73
2022/10/16 10:36:21;;;;;;;1.65;1.27;;;20.10;99.90;;;;;;7391389;19;20175;-74
2022/10/16 10:39:06;;;;;;;1.50;1.00;;;20.40;99.90;;;;;;7388448;19;20146;-73
2022/10/16 10:41:43;;;;;;;3.50;1.10;;;20.40;99.90;;;;;;7388474;19;20643;-74
2022/10/16 10:44:30;;;;;;;3.92;1.40;;;20.40;99.90;;;;;;7388375;19;20153;-73
2022/10/16 10:47:30;;;;;;;1.20;1.10;;;20.40;99.90;;;;;;7388029;19;20142;-73
2022/10/16 10:50:05;;;;;;;1.98;1.33;;;20.40;99.90;;;;;;7385648;19;20143;-73
2022/10/16 10:52:52;;;;;;;2.10;0.93;;;20.40;99.90;;;;;;7387981;19;20149;-74
2022/10/16 10:55:32;;;;;;;2.45;1.10;;;20.60;99.90;;;;;;7389271;19;20170;-73
2022/10/16 10:58:32;;;;;;;1.10;0.90;;;20.60;99.90;;;;;;7387934;19;20165;-74
2022/10/16 11:01:17;;;;;;;1.55;1.20;;;20.70;99.90;;;;;;7388071;19;20147;-72
2022/10/16 11:04:16;;;;;;;5.88;1.05;;;20.70;99.90;;;;;;7386444;19;20174;-74
2022/10/16 11:06:48;;;;;;;2.58;1.02;;;20.90;99.90;;;;;;7386025;19;20162;-73
2022/10/16 11:09:28;;;;;;;2.50;1.40;;;21.00;99.90;;;;;;7386784;19;20150;-73
2022/10/16 11:12:20;;;;;;;1.92;1.50;;;21.00;99.90;;;;;;7385952;19;20157;-74
2022/10/16 11:15:00;;;;;;;2.38;1.63;;;20.90;99.90;;;;;;7385996;19;20151;-73
2022/10/16 11:17:35;;;;;;;2.72;1.10;;;20.90;99.90;;;;;;7388532;19;20143;-72
2022/10/16 11:20:12;;;;;;;5.47;2.03;;;20.90;99.90;;;;;;7384742;19;20222;-73
2022/10/16 11:22:56;;;;;;;2.50;1.70;;;20.90;99.90;;;;;;7390106;19;20145;-73
2022/10/16 11:25:26;;;;;;;3.60;1.70;;;21.00;99.90;;;;;;7388578;19;20165;-73
2022/10/16 11:28:27;;;;;;;2.38;1.55;;;21.10;99.90;;;;;;7386069;19;20146;-73
2022/10/16 11:31:04;;;;;;;2.10;1.38;;;21.20;99.90;;;;;;7386055;19;20159;-74
2022/10/16 11:33:37;;;;;;;1.50;1.13;;;21.20;99.90;;;;;;7389419;19;20147;-72
2022/10/16 11:36:25;;;;;;;4.43;1.10;;;21.20;99.90;;;;;;7386099;19;20143;-73
2022/10/16 11:39:18;;;;;;;1.42;1.00;;;21.20;99.90;;;;;;7387275;19;20669;-73
2022/10/16 11:41:54;;;;;;;3.15;1.70;;;21.30;99.90;;;;;;7388161;19;20135;-72
2022/10/16 11:44:57;;;;;;;1.77;1.20;;;21.40;99.90;;;;;;7387558;19;20146;-74
2022/10/16 11:47:26;;;;;;;2.15;1.23;;;21.50;99.90;;;;;;7388656;19;20497;-73
2022/10/16 11:50:20;;;;;;;3.25;1.35;;;21.60;99.90;;;;;;7386564;19;20146;-72
2022/10/16 11:53:03;;;;;;;4.88;1.55;;;21.80;99.90;;;;;;7381095;19;20522;-73
2022/10/16 11:55:40;;;;;;;1.67;1.20;;;21.90;99.90;;;;;;7385125;19;20229;-74
2022/10/16 11:58:27;;;;;;;1.67;1.50;;;22.00;99.90;;;;;;7393656;19;20150;-72
2022/10/16 12:01:10;;;;;;;2.63;1.17;;;22.10;99.90;;;;;;7393876;19;20159;-72
2022/10/16 12:04:22;;;;;;;1.80;1.13;;;22.10;99.90;;;;;;7391504;19;20230;-73
2022/10/16 12:07:07;;;;;;;2.50;1.02;;;22.20;99.90;;;;;;7391057;19;20186;-73
2022/10/16 12:09:37;;;;;;;2.85;1.05;;;22.30;99.90;;;;;;7392971;19;20139;-72
2022/10/16 12:12:03;;;;;;;1.48;1.15;;;22.40;99.90;;;;;;7391241;19;20156;-75
2022/10/16 12:14:41;;;;;;;1.20;1.02;;;22.40;99.90;;;;;;7396636;19;20735;-75
2022/10/16 12:17:35;;;;;;;1.50;1.02;;;22.50;99.90;;;;;;7393046;19;20261;-74
2022/10/16 12:20:16;;;;;;;1.42;1.20;;;22.40;99.90;;;;;;7394035;19;20135;-73
2022/10/16 12:22:53;;;;;;;3.15;1.70;;;22.30;99.90;;;;;;7393356;19;20135;-75
2022/10/16 12:25:27;;;;;;;2.63;1.00;;;22.30;99.90;;;;;;7392796;19;20150;-73
2022/10/16 12:28:16;;;;;;;2.30;1.30;;;22.40;99.90;;;;;;7391246;19;20148;-73
2022/10/16 12:30:43;;;;;;;3.78;1.70;;;22.50;99.90;;;;;;7394904;19;20628;-73
2022/10/16 12:33:29;;;;;;;2.08;1.65;;;22.70;99.90;;;;;;7391344;19;20134;-74
2022/10/16 12:35:56;;;;;;;2.17;1.30;;;22.70;99.90;;;;;;7393138;19;20138;-73
2022/10/16 12:38:32;;;;;;;6.60;1.42;;;22.70;99.90;;;;;;7391665;19;20135;-73
2022/10/16 12:41:04;;;;;;;2.88;1.25;;;22.50;99.90;;;;;;7393232;19;20150;-73
2022/10/16 12:43:32;;;;;;;1.33;1.10;;;22.60;99.90;;;;;;7394235;19;20142;-75
2022/10/16 12:46:04;;;;;;;1.45;1.35;;;22.50;99.90;;;;;;7391740;19;20154;-73
2022/10/16 12:48:31;;;;;;;1.60;1.25;;;22.60;99.90;;;;;;7391838;19;20139;-73
2022/10/16 12:50:56;;;;;;;1.60;1.40;;;22.80;99.90;;;;;;7393186;19;20270;-75
2022/10/16 12:53:25;;;;;;;3.95;1.25;;;22.80;99.90;;;;;;7393633;19;20279;-73
2022/10/16 12:56:03;;;;;;;4.05;2.20;;;22.80;99.90;;;;;;7391300;19;20630;-72
2022/10/16 12:58:40;;;;;;;4.15;1.52;;;22.80;99.90;;;;;;7391352;19;20138;-73
2022/10/16 13:01:42;;;;;;;1.42;1.30;;;22.80;99.90;;;;;;7394241;19;20138;-71
2022/10/16 13:04:31;;;;;;;1.85;1.23;;;22.70;99.90;;;;;;7390651;19;20160;-72
2022/10/16 13:07:31;;;;;;;3.47;1.35;;;22.70;99.90;;;;;;7389560;19;20166;-74
2022/10/16 13:10:18;;;;;;;2.60;1.58;;;22.50;99.90;;;;;;7393430;19;20190;-72